sensor_id;sensor_type;location;lat;lon;timestamp;P1;durP1;ratioP1;P2;durP2;ratioP2
14774;SDS011;7479;47.042;15.160;2023-08-31T05:54:39;2.70;;;2.50;;
14774;SDS011;7479;47.042;15.160;2023-08-31T05:59:32;3.90;;;2.73;;
14774;SDS011;7479;47.042;15.160;2023-08-31T06:04:25;2.53;;;2.20;;
14774;SDS011;7479;47.042;15.160;2023-08-31T06:21:34;3.90;;;2.10;;
14774;SDS011;7479;47.042;15.160;2023-08-31T06:26:28;5.50;;;1.90;;
14774;SDS011;7479;47.042;15.160;2023-08-31T06:31:21;2.77;;;2.20;;
14774;SDS011;7479;47.042;15.160;2023-08-31T06:36:15;2.33;;;1.83;;
14774;SDS011;7479;47.042;15.160;2023-08-31T06:41:10;2.20;;;1.90;;
14774;SDS011;7479;47.042;15.160;2023-08-31T06:46:03;4.07;;;1.85;;
14774;SDS011;7479;47.042;15.160;2023-08-31T06:51:14;2.55;;;1.80;;
14774;SDS011;7479;47.042;15.160;2023-08-31T06:56:07;2.45;;;1.80;;
14774;SDS011;7479;47.042;15.160;2023-08-31T07:01:05;2.45;;;2.25;;
14774;SDS011;7479;47.042;15.160;2023-08-31T07:05:59;3.20;;;2.30;;
14774;SDS011;7479;47.042;15.160;2023-08-31T07:10:52;3.58;;;2.20;;
14774;SDS011;7479;47.042;15.160;2023-08-31T07:15:47;2.63;;;1.98;;
14774;SDS011;7479;47.042;15.160;2023-08-31T07:20:41;2.10;;;1.88;;
14774;SDS011;7479;47.042;15.160;2023-08-31T07:25:35;2.20;;;2.00;;
14774;SDS011;7479;47.042;15.160;2023-08-31T07:30:28;2.33;;;2.13;;
14774;SDS011;7479;47.042;15.160;2023-08-31T07:35:26;3.97;;;2.00;;
14774;SDS011;7479;47.042;15.160;2023-08-31T07:40:19;1.83;;;1.73;;
14774;SDS011;7479;47.042;15.160;2023-08-31T07:45:13;3.97;;;1.90;;
14774;SDS011;7479;47.042;15.160;2023-08-31T07:50:07;1.63;;;1.52;;
14774;SDS011;7479;47.042;15.160;2023-08-31T07:55:02;2.85;;;1.85;;
14774;SDS011;7479;47.042;15.160;2023-08-31T07:59:56;2.15;;;1.67;;
14774;SDS011;7479;47.042;15.160;2023-08-31T08:05:03;1.48;;;1.38;;
14774;SDS011;7479;47.042;15.160;2023-08-31T08:09:57;5.05;;;4.55;;
14774;SDS011;7479;47.042;15.160;2023-08-31T08:14:52;2.75;;;2.55;;
14774;SDS011;7479;47.042;15.160;2023-08-31T08:19:46;1.98;;;1.70;;
14774;SDS011;7479;47.042;15.160;2023-08-31T08:24:40;2.13;;;1.70;;
14774;SDS011;7479;47.042;15.160;2023-08-31T08:29:34;2.10;;;1.63;;
14774;SDS011;7479;47.042;15.160;2023-08-31T08:34:29;1.77;;;1.60;;
14774;SDS011;7479;47.042;15.160;2023-08-31T08:39:23;1.80;;;1.70;;
14774;SDS011;7479;47.042;15.160;2023-08-31T08:44:16;2.10;;;1.90;;
14774;SDS011;7479;47.042;15.160;2023-08-31T08:49:11;1.88;;;1.77;;
14774;SDS011;7479;47.042;15.160;2023-08-31T08:54:07;1.75;;;1.65;;
14774;SDS011;7479;47.042;15.160;2023-08-31T08:59:01;1.75;;;1.65;;
14774;SDS011;7479;47.042;15.160;2023-08-31T09:03:55;2.30;;;1.70;;
14774;SDS011;7479;47.042;15.160;2023-08-31T09:08:53;1.98;;;1.88;;
14774;SDS011;7479;47.042;15.160;2023-08-31T09:13:49;3.85;;;1.60;;
14774;SDS011;7479;47.042;15.160;2023-08-31T09:18:43;2.08;;;1.73;;
14774;SDS011;7479;47.042;15.160;2023-08-31T09:23:37;1.70;;;1.60;;
14774;SDS011;7479;47.042;15.160;2023-08-31T09:28:31;1.50;;;1.40;;
14774;SDS011;7479;47.042;15.160;2023-08-31T09:33:26;1.73;;;1.63;;
14774;SDS011;7479;47.042;15.160;2023-08-31T09:38:21;1.70;;;1.60;;
14774;SDS011;7479;47.042;15.160;2023-08-31T09:43:20;1.60;;;1.50;;
14774;SDS011;7479;47.042;15.160;2023-08-31T09:48:15;1.30;;;1.20;;
14774;SDS011;7479;47.042;15.160;2023-08-31T09:53:11;2.10;;;1.38;;
14774;SDS011;7479;47.042;15.160;2023-08-31T09:58:06;1.40;;;1.30;;
14774;SDS011;7479;47.042;15.160;2023-08-31T10:03:07;6.00;;;1.73;;
14774;SDS011;7479;47.042;15.160;2023-08-31T10:08:04;2.45;;;1.40;;
14774;SDS011;7479;47.042;15.160;2023-08-31T10:13:00;2.45;;;1.42;;
14774;SDS011;7479;47.042;15.160;2023-08-31T10:17:55;1.30;;;1.20;;
14774;SDS011;7479;47.042;15.160;2023-08-31T10:22:49;1.35;;;1.25;;
14774;SDS011;7479;47.042;15.160;2023-08-31T10:27:42;1.65;;;1.55;;
14774;SDS011;7479;47.042;15.160;2023-08-31T10:32:40;1.70;;;1.60;;
14774;SDS011;7479;47.042;15.160;2023-08-31T10:37:33;1.40;;;1.30;;
14774;SDS011;7479;47.042;15.160;2023-08-31T10:42:27;1.83;;;1.40;;
14774;SDS011;7479;47.042;15.160;2023-08-31T10:47:20;1.40;;;1.30;;
14774;SDS011;7479;47.042;15.160;2023-08-31T10:52:35;1.92;;;1.50;;
14774;SDS011;7479;47.042;15.160;2023-08-31T10:57:37;1.60;;;1.50;;
14774;SDS011;7479;47.042;15.160;2023-08-31T11:02:33;1.85;;;1.67;;
14774;SDS011;7479;47.042;15.160;2023-08-31T11:07:27;1.58;;;1.42;;
14774;SDS011;7479;47.042;15.160;2023-08-31T11:12:23;2.22;;;1.60;;
14774;SDS011;7479;47.042;15.160;2023-08-31T11:17:16;1.60;;;1.40;;
14774;SDS011;7479;47.042;15.160;2023-08-31T11:22:10;3.80;;;1.45;;
14774;SDS011;7479;47.042;15.160;2023-08-31T11:27:06;1.67;;;1.55;;
14774;SDS011;7479;47.042;15.160;2023-08-31T11:32:03;1.50;;;1.40;;
14774;SDS011;7479;47.042;15.160;2023-08-31T11:36:57;1.60;;;1.50;;
14774;SDS011;7479;47.042;15.160;2023-08-31T11:41:51;1.50;;;1.30;;
14774;SDS011;7479;47.042;15.160;2023-08-31T11:46:45;1.40;;;1.30;;
14774;SDS011;7479;47.042;15.160;2023-08-31T11:51:43;2.35;;;1.50;;
14774;SDS011;7479;47.042;15.160;2023-08-31T11:56:40;2.30;;;1.40;;
14774;SDS011;7479;47.042;15.160;2023-08-31T12:01:37;1.50;;;1.40;;
14774;SDS011;7479;47.042;15.160;2023-08-31T12:06:32;1.42;;;1.33;;
14774;SDS011;7479;47.042;15.160;2023-08-31T12:11:27;1.52;;;1.40;;
14774;SDS011;7479;47.042;15.160;2023-08-31T12:16:20;1.50;;;1.40;;
14774;SDS011;7479;47.042;15.160;2023-08-31T12:21:14;1.58;;;1.48;;
14774;SDS011;7479;47.042;15.160;2023-08-31T12:26:07;1.67;;;1.58;;
14774;SDS011;7479;47.042;15.160;2023-08-31T12:31:03;1.70;;;1.60;;
14774;SDS011;7479;47.042;15.160;2023-08-31T12:35:57;1.55;;;1.45;;
14774;SDS011;7479;47.042;15.160;2023-08-31T12:40:52;4.22;;;1.80;;
14774;SDS011;7479;47.042;15.160;2023-08-31T12:45:46;1.52;;;1.40;;
14774;SDS011;7479;47.042;15.160;2023-08-31T12:50:41;1.75;;;1.48;;
14774;SDS011;7479;47.042;15.160;2023-08-31T12:55:35;1.60;;;1.50;;
14774;SDS011;7479;47.042;15.160;2023-08-31T13:00:28;2.55;;;1.38;;
14774;SDS011;7479;47.042;15.160;2023-08-31T13:05:21;1.52;;;1.30;;
14774;SDS011;7479;47.042;15.160;2023-08-31T13:10:17;1.50;;;1.40;;
14774;SDS011;7479;47.042;15.160;2023-08-31T13:15:10;2.25;;;1.33;;
14774;SDS011;7479;47.042;15.160;2023-08-31T13:20:06;1.63;;;1.40;;
14774;SDS011;7479;47.042;15.160;2023-08-31T13:25:01;1.50;;;1.27;;
14774;SDS011;7479;47.042;15.160;2023-08-31T13:29:57;3.10;;;2.35;;
14774;SDS011;7479;47.042;15.160;2023-08-31T13:34:51;1.40;;;1.30;;
14774;SDS011;7479;47.042;15.160;2023-08-31T13:39:45;1.50;;;1.40;;
14774;SDS011;7479;47.042;15.160;2023-08-31T13:44:42;1.48;;;1.38;;
14774;SDS011;7479;47.042;15.160;2023-08-31T13:49:38;2.75;;;1.50;;
14774;SDS011;7479;47.042;15.160;2023-08-31T13:54:33;2.55;;;1.55;;
14774;SDS011;7479;47.042;15.160;2023-08-31T13:59:26;1.60;;;1.50;;
14774;SDS011;7479;47.042;15.160;2023-08-31T14:04:20;1.75;;;1.45;;
14774;SDS011;7479;47.042;15.160;2023-08-31T14:09:16;1.63;;;1.52;;
14774;SDS011;7479;47.042;15.160;2023-08-31T14:14:10;1.83;;;1.73;;
14774;SDS011;7479;47.042;15.160;2023-08-31T14:19:04;1.60;;;1.50;;
14774;SDS011;7479;47.042;15.160;2023-08-31T14:23:58;1.50;;;1.40;;
14774;SDS011;7479;47.042;15.160;2023-08-31T14:28:53;2.58;;;1.60;;
14774;SDS011;7479;47.042;15.160;2023-08-31T14:33:46;2.05;;;1.70;;
14774;SDS011;7479;47.042;15.160;2023-08-31T14:38:40;1.50;;;1.40;;
14774;SDS011;7479;47.042;15.160;2023-08-31T14:43:33;2.35;;;1.70;;
14774;SDS011;7479;47.042;15.160;2023-08-31T14:48:28;1.73;;;1.63;;
14774;SDS011;7479;47.042;15.160;2023-08-31T14:53:21;2.80;;;1.52;;
14774;SDS011;7479;47.042;15.160;2023-08-31T14:58:15;1.70;;;1.50;;
14774;SDS011;7479;47.042;15.160;2023-08-31T15:03:09;2.13;;;1.90;;
14774;SDS011;7479;47.042;15.160;2023-08-31T15:08:05;2.05;;;1.85;;
14774;SDS011;7479;47.042;15.160;2023-08-31T15:12:59;1.70;;;1.60;;
14774;SDS011;7479;47.042;15.160;2023-08-31T15:17:52;2.20;;;2.00;;
14774;SDS011;7479;47.042;15.160;2023-08-31T15:22:47;2.88;;;1.85;;
14774;SDS011;7479;47.042;15.160;2023-08-31T15:27:42;3.97;;;2.20;;
14774;SDS011;7479;47.042;15.160;2023-08-31T15:32:36;2.10;;;1.90;;
14774;SDS011;7479;47.042;15.160;2023-08-31T15:37:30;2.97;;;2.03;;
14774;SDS011;7479;47.042;15.160;2023-08-31T15:42:25;2.10;;;1.80;;
14774;SDS011;7479;47.042;15.160;2023-08-31T15:47:21;2.83;;;2.30;;
14774;SDS011;7479;47.042;15.160;2023-08-31T15:52:16;4.63;;;2.30;;
14774;SDS011;7479;47.042;15.160;2023-08-31T15:57:10;2.53;;;2.20;;
14774;SDS011;7479;47.042;15.160;2023-08-31T16:02:03;2.58;;;2.25;;
14774;SDS011;7479;47.042;15.160;2023-08-31T16:07:09;2.38;;;2.17;;
14774;SDS011;7479;47.042;15.160;2023-08-31T16:12:04;2.40;;;2.20;;
14774;SDS011;7479;47.042;15.160;2023-08-31T16:16:59;2.00;;;1.75;;
14774;SDS011;7479;47.042;15.160;2023-08-31T16:21:53;2.95;;;1.90;;
14774;SDS011;7479;47.042;15.160;2023-08-31T16:26:48;3.25;;;2.38;;
14774;SDS011;7479;47.042;15.160;2023-08-31T16:31:42;3.08;;;2.63;;
14774;SDS011;7479;47.042;15.160;2023-08-31T16:36:36;2.58;;;2.13;;
14774;SDS011;7479;47.042;15.160;2023-08-31T16:41:30;2.50;;;2.30;;
14774;SDS011;7479;47.042;15.160;2023-08-31T16:46:26;3.38;;;2.47;;
14774;SDS011;7479;47.042;15.160;2023-08-31T16:51:19;3.33;;;2.25;;
14774;SDS011;7479;47.042;15.160;2023-08-31T16:56:13;3.15;;;2.38;;
14774;SDS011;7479;47.042;15.160;2023-08-31T17:01:07;2.88;;;2.40;;
14774;SDS011;7479;47.042;15.160;2023-08-31T17:06:02;2.90;;;2.20;;
14774;SDS011;7479;47.042;15.160;2023-08-31T17:10:55;2.75;;;2.22;;
14774;SDS011;7479;47.042;15.160;2023-08-31T17:15:49;2.28;;;2.08;;
14774;SDS011;7479;47.042;15.160;2023-08-31T17:20:43;2.53;;;2.33;;
14774;SDS011;7479;47.042;15.160;2023-08-31T17:25:38;3.38;;;2.38;;
14774;SDS011;7479;47.042;15.160;2023-08-31T17:30:31;3.42;;;2.30;;
14774;SDS011;7479;47.042;15.160;2023-08-31T17:35:27;2.60;;;2.40;;
14774;SDS011;7479;47.042;15.160;2023-08-31T17:40:21;3.35;;;2.50;;
14774;SDS011;7479;47.042;15.160;2023-08-31T17:45:16;2.58;;;2.08;;
14774;SDS011;7479;47.042;15.160;2023-08-31T17:50:12;3.15;;;2.50;;
14774;SDS011;7479;47.042;15.160;2023-08-31T17:55:07;3.20;;;2.90;;
14774;SDS011;7479;47.042;15.160;2023-08-31T18:00:00;2.90;;;2.60;;
14774;SDS011;7479;47.042;15.160;2023-08-31T18:05:00;4.03;;;2.40;;
14774;SDS011;7479;47.042;15.160;2023-08-31T18:09:55;3.03;;;2.70;;
14774;SDS011;7479;47.042;15.160;2023-08-31T18:14:48;3.22;;;2.92;;
14774;SDS011;7479;47.042;15.160;2023-08-31T18:19:45;3.40;;;2.80;;
14774;SDS011;7479;47.042;15.160;2023-08-31T18:24:40;3.05;;;2.70;;
14774;SDS011;7479;47.042;15.160;2023-08-31T18:29:33;2.90;;;2.63;;
14774;SDS011;7479;47.042;15.160;2023-08-31T18:34:27;3.65;;;2.65;;
14774;SDS011;7479;47.042;15.160;2023-08-31T18:39:22;2.78;;;2.40;;
14774;SDS011;7479;47.042;15.160;2023-08-31T18:44:18;3.13;;;2.60;;
14774;SDS011;7479;47.042;15.160;2023-08-31T18:49:12;3.38;;;2.38;;
14774;SDS011;7479;47.042;15.160;2023-08-31T18:54:06;4.07;;;2.65;;
14774;SDS011;7479;47.042;15.160;2023-08-31T18:58:59;4.43;;;2.90;;
